Forest Hills, Georgia
Current Conditions -  °F | °C
As of 6:53 AM on Sunday 23 Nov 2014 (Local Time) from KDNL Reporting Station
Light Rain Light Rain  
Wind Chill: 55°   Ceiling: 300
Heat Index: 55°   Visibility: 6mi
Dew Point: 54°   Wind: 10mph
Humidity: 96%   Direction: 60°ENE
Pressure: 30.13"   Gusts: NA
Location:  33.4713°N, 82.0854°W
Report Text: KDNL 231153Z AUTO 06009KT 6SM -RA BR OVC003 13/12 A3013 RMK AO2 SLP200 P0002 60037 70038 T01280122 10128 20111 56011
Loading
Personal Weather Stations






























Interactive Weather Map New forecast layout! Learn more

10-Day Weather Forecast

Advertisements
Track Severe Weather on mobile